Terminal Aerodrome Forecast
Issued by NWS

Home | Current Version | Previous Version | Text Only | Print | Product List | Glossary On
Versions: 1 2 3 4 5 6 7 8 9 10 11 12 13 14
000
FTUS42 TJSJ 311137
TAFNCM
TAF
TNCM 311137Z 3112/0112 09011KT P6SM VCSH SCT018 SCT040
      TEMPO 3112/3114 -SHRA BKN018
     FM311400 09015KT P6SM SCT025 SCT050
     FM312300 09012KT P6SM FEW022=

USA.gov is the U.S. government's official web portal to all federal, state and local government web resources and services.